Time;durP1;ratioP1;P1;durP2;ratioP2;P2;SDS_P1;SDS_P2;PMS_P1;PMS_P2;Temp;Humidity;BMP_temperature;BMP_pressure;BME280_temperature;BME280_humidity;BME280_pressure;Samples;Min_cycle;Max_cycle;Signal;HPM_P1;HPM_P2
2023/01/11 00:01:53;;;;;;;7.57;2.10;;;;;;;10.53;100.00;97401.00;4827130;29;20389;-83
2023/01/11 00:04:19;;;;;;;8.85;2.67;;;;;;;10.49;100.00;97408.53;4831694;29;20113;-83
2023/01/11 00:06:45;;;;;;;6.68;1.88;;;;;;;10.38;100.00;97409.34;4839443;29;20493;-83
2023/01/11 00:09:11;;;;;;;9.25;2.10;;;;;;;10.43;100.00;97438.31;4835959;29;20046;-82
2023/01/11 00:11:37;;;;;;;10.25;2.20;;;;;;;10.49;100.00;97431.34;4831204;29;20046;-84
2023/01/11 00:14:03;;;;;;;5.60;2.00;;;;;;;10.46;100.00;97443.09;4830355;29;20462;-84
2023/01/11 00:16:29;;;;;;;7.25;2.35;;;;;;;10.54;100.00;97434.06;4826772;29;20042;-84
2023/01/11 00:18:55;;;;;;;9.35;2.33;;;;;;;10.17;100.00;97442.22;4836925;29;20036;-83
2023/01/11 00:21:21;;;;;;;7.57;2.33;;;;;;;10.43;100.00;97439.13;4834624;29;20034;-84
2023/01/11 00:23:48;;;;;;;10.27;2.53;;;;;;;10.40;100.00;97447.44;4849184;29;20042;-84
2023/01/11 00:26:14;;;;;;;5.38;2.67;;;;;;;10.35;100.00;97455.19;4834542;29;20090;-84
2023/01/11 00:28:40;;;;;;;6.38;2.28;;;;;;;9.86;100.00;97466.78;4829288;29;20039;-84
2023/01/11 00:31:06;;;;;;;9.65;2.22;;;;;;;9.88;100.00;97484.09;4830589;29;20042;-83
2023/01/11 00:33:32;;;;;;;14.27;2.50;;;;;;;10.05;100.00;97479.78;4832158;29;20791;-83
2023/01/11 00:35:59;;;;;;;7.88;2.83;;;;;;;10.02;100.00;97482.81;4826969;29;20041;-83
2023/01/11 00:38:42;;;;;;;9.07;3.13;;;;;;;10.16;100.00;97488.66;4830521;29;20042;-84
2023/01/11 00:49:22;;;;;;;8.77;3.00;;;;;;;9.90;100.00;97505.63;4837948;29;20038;-85
2023/01/11 00:51:48;;;;;;;17.75;2.78;;;;;;;9.96;100.00;97517.81;4838167;29;20042;-84
2023/01/11 00:54:14;;;;;;;13.60;2.97;;;;;;;9.72;100.00;97525.69;4831868;29;20093;-83
2023/01/11 00:56:40;;;;;;;10.90;2.70;;;;;;;10.34;100.00;97549.84;4828857;29;20058;-84
2023/01/11 00:59:05;;;;;;;11.23;2.88;;;;;;;10.03;100.00;97544.75;4835460;29;20088;-83
2023/01/11 01:01:31;;;;;;;5.45;2.65;;;;;;;10.15;100.00;97558.63;4830324;29;20054;-83
2023/01/11 01:03:58;;;;;;;13.60;3.13;;;;;;;9.82;100.00;97539.00;4831879;29;20386;-82
2023/01/11 01:06:24;;;;;;;9.00;2.40;;;;;;;10.02;100.00;97547.56;4829563;29;20053;-84
2023/01/11 01:08:50;;;;;;;11.70;2.60;;;;;;;10.43;100.00;97538.81;4832545;29;20038;-83
2023/01/11 01:11:15;;;;;;;9.40;3.15;;;;;;;9.92;100.00;97564.66;4831748;29;20034;-85
2023/01/11 01:16:25;;;;;;;;;;;;;;;10.03;100.00;97560.47;4831297;29;20613;-83
2023/01/11 01:18:52;;;;;;;8.60;2.78;;;;;;;10.00;100.00;97537.31;4837142;29;20007;-84
2023/01/11 01:21:18;;;;;;;10.98;2.80;;;;;;;9.43;100.00;97525.50;4831808;29;20104;-83
2023/01/11 01:23:44;;;;;;;11.23;3.38;;;;;;;9.23;100.00;97555.38;4830770;29;20545;-83
2023/01/11 01:26:10;;;;;;;9.07;2.65;;;;;;;9.78;100.00;97576.38;4833809;29;20038;-82
2023/01/11 01:28:35;;;;;;;14.57;3.08;;;;;;;9.71;100.00;97566.00;4825978;29;20038;-83
2023/01/11 01:31:01;;;;;;;8.82;2.55;;;;;;;9.38;100.00;97575.94;4828446;29;20399;-82
2023/01/11 01:33:27;;;;;;;16.10;2.90;;;;;;;9.35;100.00;97559.88;4837312;29;20071;-83
2023/01/11 01:35:53;;;;;;;5.45;2.28;;;;;;;9.45;100.00;97581.09;4828689;29;20034;-83
2023/01/11 01:38:18;;;;;;;16.23;2.70;;;;;;;8.91;100.00;97568.69;4836669;29;20046;-82
2023/01/11 01:40:46;;;;;;;14.85;2.60;;;;;;;9.18;100.00;97567.56;4820732;29;20514;-83
2023/01/11 01:43:15;;;;;;;11.85;2.85;;;;;;;9.22;100.00;97582.59;4833428;29;20030;-83
2023/01/11 01:45:42;;;;;;;13.48;3.05;;;;;;;9.26;100.00;97573.28;4830241;29;20030;-82
2023/01/11 01:48:21;;;;;;;10.43;2.95;;;;;;;8.94;100.00;97586.56;4833298;29;20523;-82
2023/01/11 01:50:56;;;;;;;14.15;2.83;;;;;;;8.82;100.00;97560.34;4830518;29;20026;-83
2023/01/11 01:53:28;;;;;;;11.77;3.22;;;;;;;9.26;100.00;97594.22;4828015;29;20179;-82
2023/01/11 01:56:00;;;;;;;15.20;3.03;;;;;;;9.41;100.00;97578.13;4836886;29;20038;-82
2023/01/11 01:58:39;;;;;;;10.80;2.58;;;;;;;9.27;100.00;97580.13;4830628;29;20046;-83
2023/01/11 02:03:51;;;;;;;11.23;3.53;;;;;;;9.49;100.00;97603.19;4827865;29;20041;-83
2023/01/11 02:06:20;;;;;;;8.40;2.97;;;;;;;9.37;100.00;97610.19;4837227;29;20516;-84
2023/01/11 02:08:52;;;;;;;13.02;2.78;;;;;;;9.34;100.00;97605.41;4842187;29;20125;-84
2023/01/11 02:11:30;;;;;;;17.52;3.47;;;;;;;8.82;100.00;97583.88;4829172;29;20109;-83
2023/01/11 02:13:58;;;;;;;10.60;2.42;;;;;;;8.90;100.00;97589.84;4834820;29;20553;-83
2023/01/11 02:16:23;;;;;;;12.93;3.28;;;;;;;8.98;100.00;97592.94;4830564;29;20066;-83
2023/01/11 02:18:49;;;;;;;17.40;3.38;;;;;;;8.98;100.00;97597.41;4830315;29;20088;-85
2023/01/11 02:21:34;;;;;;;13.73;3.10;;;;;;;9.07;100.00;97603.13;4830176;29;20509;-84
2023/01/11 02:24:29;;;;;;;16.38;3.13;;;;;;;8.75;100.00;97583.16;4831531;29;20038;-83
2023/01/11 02:27:19;;;;;;;18.25;3.22;;;;;;;9.02;100.00;97611.63;4833519;29;20117;-83
2023/01/11 02:29:50;;;;;;;21.17;3.83;;;;;;;8.88;100.00;97611.00;4834919;29;20533;-83
2023/01/11 02:32:24;;;;;;;15.52;4.28;;;;;;;8.97;100.00;97622.75;4824264;29;20034;-85
2023/01/11 02:34:56;;;;;;;22.33;3.42;;;;;;;8.76;100.00;97615.34;4847567;29;20513;-85
2023/01/11 02:37:27;;;;;;;16.23;3.25;;;;;;;9.10;100.00;97626.25;4834717;29;20038;-84
2023/01/11 02:40:10;;;;;;;14.48;2.92;;;;;;;8.94;100.00;97615.34;4836476;29;20034;-85
2023/01/11 02:45:21;;;;;;;13.18;2.65;;;;;;;8.65;100.00;97641.22;4834189;29;20038;-85
2023/01/11 02:47:52;;;;;;;17.85;2.92;;;;;;;9.03;100.00;97643.84;4850640;29;20042;-85
2023/01/11 02:50:38;;;;;;;16.83;3.40;;;;;;;8.79;100.00;97641.06;4837044;29;20037;-85
2023/01/11 02:53:25;;;;;;;22.13;3.30;;;;;;;9.06;100.00;97640.81;4847279;29;20186;-81
2023/01/11 02:55:57;;;;;;;17.83;3.30;;;;;;;8.85;100.00;97651.47;4831183;29;20034;-82
2023/01/11 02:58:27;;;;;;;21.80;3.65;;;;;;;8.60;100.00;97648.91;4831656;29;20038;-81
2023/01/11 03:00:57;;;;;;;13.07;3.00;;;;;;;8.71;100.00;97650.81;4846667;29;20182;-82
2023/01/11 03:03:24;;;;;;;26.23;3.22;;;;;;;8.40;100.00;97652.47;4833279;29;20049;-81
2023/01/11 03:05:57;;;;;;;18.98;3.30;;;;;;;8.50;100.00;97648.59;4846449;29;20130;-81
2023/01/11 03:08:50;;;;;;;20.30;3.83;;;;;;;8.65;100.00;97667.38;4832642;29;20078;-81
2023/01/11 03:14:29;;;;;;;20.35;3.95;;;;;;;8.86;100.00;97653.06;4847919;29;20031;-81
2023/01/11 03:17:14;;;;;;;25.55;4.25;;;;;;;8.81;100.00;97675.66;4833131;29;20056;-81
2023/01/11 03:19:49;;;;;;;24.45;3.63;;;;;;;9.22;100.00;97676.06;4833120;29;20026;-81
2023/01/11 03:22:22;;;;;;;31.98;4.25;;;;;;;8.89;100.00;97662.31;4847352;29;20034;-81
2023/01/11 03:25:04;;;;;;;21.45;4.05;;;;;;;8.86;100.00;97675.84;4832514;29;20123;-83
2023/01/11 03:27:32;;;;;;;16.90;3.30;;;;;;;9.07;100.00;97671.19;4831989;29;20109;-83
2023/01/11 03:30:23;;;;;;;21.52;4.20;;;;;;;8.93;100.00;97663.47;4831261;29;20093;-82
2023/01/11 03:32:53;;;;;;;21.00;3.60;;;;;;;8.74;100.00;97680.19;4831940;29;20045;-82
2023/01/11 03:35:27;;;;;;;25.77;3.45;;;;;;;8.97;100.00;97669.88;4831568;29;20049;-83
2023/01/11 03:38:13;;;;;;;25.55;3.67;;;;;;;9.13;100.00;97659.84;4822949;29;20049;-82
2023/01/11 03:40:45;;;;;;;20.10;3.17;;;;;;;8.60;100.00;97661.97;4834186;29;20035;-84
2023/01/11 03:43:13;;;;;;;16.42;4.13;;;;;;;8.69;100.00;97668.53;4833289;29;20418;-82
2023/01/11 03:46:16;;;;;;;20.23;3.70;;;;;;;8.96;100.00;97678.75;4829083;29;20031;-83
2023/01/11 03:49:03;;;;;;;16.20;3.25;;;;;;;8.94;100.00;97675.53;4833700;29;20038;-82
2023/01/11 03:51:40;;;;;;;14.10;3.00;;;;;;;8.76;100.00;97646.75;4829056;29;20049;-82
2023/01/11 03:54:18;;;;;;;21.58;4.60;;;;;;;8.72;100.00;97669.91;4834478;29;20044;-82
2023/01/11 03:56:55;;;;;;;13.88;3.65;;;;;;;8.40;100.00;97644.63;4831330;29;20045;-83
2023/01/11 03:59:21;;;;;;;9.60;2.70;;;;;;;8.19;100.00;97655.47;4831181;29;20035;-82
2023/01/11 04:01:47;;;;;;;16.52;3.13;;;;;;;8.60;100.00;97664.59;4829806;29;20022;-84
2023/01/11 04:04:14;;;;;;;16.00;3.38;;;;;;;8.47;100.00;97620.25;4832336;29;20055;-83
2023/01/11 04:06:39;;;;;;;16.42;3.20;;;;;;;8.41;100.00;97655.91;4833278;29;20053;-82
2023/01/11 04:09:05;;;;;;;16.33;3.72;;;;;;;8.41;100.00;97659.28;4832233;29;20084;-81
2023/01/11 04:11:31;;;;;;;15.13;3.50;;;;;;;8.63;100.00;97652.91;4851353;29;20397;-83
2023/01/11 04:13:56;;;;;;;25.73;4.10;;;;;;;8.35;100.00;97660.16;4830931;29;20034;-82
2023/01/11 04:16:22;;;;;;;18.23;3.17;;;;;;;8.38;100.00;97659.72;4832591;29;20125;-81
2023/01/11 04:18:47;;;;;;;20.85;3.63;;;;;;;8.18;100.00;97640.78;4828199;29;20038;-82
2023/01/11 04:21:13;;;;;;;24.48;4.35;;;;;;;8.49;100.00;97655.59;4839697;29;20022;-82
2023/01/11 04:23:39;;;;;;;14.02;3.67;;;;;;;8.28;100.00;97648.97;4830243;29;20033;-83
2023/01/11 04:26:04;;;;;;;19.65;3.85;;;;;;;7.99;100.00;97633.72;4833003;29;20034;-82
2023/01/11 04:28:30;;;;;;;25.52;3.70;;;;;;;8.57;100.00;97644.09;4837047;29;20045;-83
2023/01/11 04:30:55;;;;;;;20.10;3.55;;;;;;;8.52;100.00;97630.88;4831230;29;20053;-83
2023/01/11 04:33:21;;;;;;;21.25;4.57;;;;;;;8.36;100.00;97633.00;4830648;29;20038;-82
2023/01/11 04:35:48;;;;;;;20.50;3.72;;;;;;;8.48;100.00;97645.38;4839431;29;20079;-82
2023/01/11 04:38:14;;;;;;;26.63;3.70;;;;;;;8.53;100.00;97653.41;4834322;29;20374;-82
2023/01/11 04:40:39;;;;;;;23.80;3.67;;;;;;;8.39;100.00;97637.78;4839155;29;20082;-82
2023/01/11 04:43:09;;;;;;;16.52;4.25;;;;;;;8.18;100.00;97635.56;4837482;29;20054;-82
2023/01/11 04:45:35;;;;;;;17.85;2.97;;;;;;;8.37;100.00;97647.66;4835806;29;20515;-82
2023/01/11 04:48:00;;;;;;;14.98;3.42;;;;;;;8.11;100.00;97639.03;4847022;29;20042;-82
2023/01/11 04:50:26;;;;;;;15.43;5.18;;;;;;;8.52;100.00;97643.97;4836350;29;20030;-82
2023/01/11 04:52:52;;;;;;;18.20;3.10;;;;;;;8.53;100.00;97656.03;4829169;29;20049;-83
2023/01/11 04:55:18;;;;;;;20.75;3.70;;;;;;;8.29;100.00;97658.41;4843971;29;20042;-81
2023/01/11 04:57:45;;;;;;;11.95;2.58;;;;;;;8.37;100.00;97652.13;4829766;29;20119;-82
2023/01/11 05:00:12;;;;;;;15.60;4.05;;;;;;;8.51;100.00;97643.16;4829462;29;20038;-83
2023/01/11 05:02:39;;;;;;;17.95;3.05;;;;;;;8.73;100.00;97660.25;4834784;29;20027;-83
2023/01/11 05:05:06;;;;;;;16.80;2.83;;;;;;;8.25;100.00;97662.44;4832101;29;20057;-82
2023/01/11 05:07:32;;;;;;;21.80;4.53;;;;;;;8.28;100.00;97654.19;4840769;29;20486;-83
2023/01/11 05:09:57;;;;;;;15.02;3.28;;;;;;;8.64;100.00;97660.53;4830305;29;20140;-83
2023/01/11 05:12:23;;;;;;;18.30;3.55;;;;;;;7.97;100.00;97669.69;4825025;29;20482;-83
2023/01/11 05:14:49;;;;;;;24.60;3.97;;;;;;;8.39;100.00;97657.94;4830640;29;20030;-82
2023/01/11 05:17:15;;;;;;;22.55;3.45;;;;;;;8.24;100.00;97676.53;4828980;29;20033;-82
2023/01/11 05:19:42;;;;;;;17.77;2.72;;;;;;;8.66;100.00;97668.16;4833247;29;20057;-81
2023/01/11 05:22:08;;;;;;;20.77;3.70;;;;;;;8.69;100.00;97667.72;4831424;29;20034;-82
2023/01/11 05:24:33;;;;;;;19.35;3.00;;;;;;;8.54;100.00;97681.16;4829868;29;20362;-82
2023/01/11 05:26:59;;;;;;;16.30;3.65;;;;;;;8.53;100.00;97682.97;4826834;29;20095;-82
2023/01/11 05:29:24;;;;;;;15.82;3.47;;;;;;;8.12;100.00;97663.34;4828567;29;20038;-82
2023/01/11 05:31:50;;;;;;;15.25;2.80;;;;;;;8.17;100.00;97666.16;4828255;29;20030;-83
2023/01/11 05:34:17;;;;;;;18.63;3.33;;;;;;;8.28;100.00;97682.97;4831734;29;20102;-81
2023/01/11 05:36:43;;;;;;;13.98;3.28;;;;;;;8.48;100.00;97690.63;4828731;29;20034;-81
2023/01/11 05:39:10;;;;;;;12.40;2.95;;;;;;;8.35;100.00;97690.72;4826389;29;20034;-83
2023/01/11 05:41:36;;;;;;;20.85;3.55;;;;;;;8.02;100.00;97689.16;4828972;29;20033;-84
2023/01/11 05:46:46;;;;;;;17.00;3.45;;;;;;;8.07;100.00;97690.13;4831284;29;20105;-84
2023/01/11 05:49:12;;;;;;;17.83;3.50;;;;;;;8.22;100.00;97700.28;4838381;29;20444;-83
2023/01/11 05:51:39;;;;;;;12.77;2.92;;;;;;;8.09;100.00;97685.50;4845062;29;20073;-85
2023/01/11 05:54:08;;;;;;;15.90;3.00;;;;;;;8.29;100.00;97690.56;4840388;29;20045;-83
2023/01/11 05:56:34;;;;;;;14.90;2.92;;;;;;;8.31;100.00;97671.25;4827454;29;20035;-83
2023/01/11 05:59:00;;;;;;;13.27;3.20;;;;;;;8.27;100.00;97686.59;4829383;29;20042;-84
2023/01/11 06:01:25;;;;;;;16.70;3.67;;;;;;;8.20;100.00;97688.44;4831994;29;20377;-84
2023/01/11 06:03:51;;;;;;;10.30;3.78;;;;;;;8.25;100.00;97705.09;4830983;29;20059;-84
2023/01/11 06:06:19;;;;;;;17.15;4.50;;;;;;;8.27;100.00;97707.50;4834911;29;20054;-83
2023/01/11 06:08:45;;;;;;;18.55;3.63;;;;;;;8.39;100.00;97707.59;4834116;29;20041;-84
2023/01/11 06:11:11;;;;;;;13.80;3.17;;;;;;;7.95;100.00;97691.81;4836418;29;20045;-81
2023/01/11 06:13:37;;;;;;;12.00;3.08;;;;;;;7.90;100.00;97679.38;4833517;29;20401;-83
2023/01/11 06:16:05;;;;;;;17.38;3.53;;;;;;;7.97;100.00;97708.09;4837737;29;20023;-83
2023/01/11 06:18:34;;;;;;;18.65;3.90;;;;;;;7.98;100.00;97720.13;4834159;29;20045;-83
2023/01/11 06:21:00;;;;;;;18.42;3.40;;;;;;;7.90;100.00;97702.09;4834986;29;20034;-82
2023/01/11 06:23:28;;;;;;;20.27;3.35;;;;;;;7.93;100.00;97717.34;4832353;29;20038;-82
2023/01/11 06:25:53;;;;;;;14.98;3.35;;;;;;;7.89;100.00;97710.97;4836675;29;20033;-83
2023/01/11 06:28:20;;;;;;;22.95;4.00;;;;;;;7.97;100.00;97724.56;4834531;29;20039;-83
2023/01/11 06:30:53;;;;;;;18.50;4.05;;;;;;;8.08;100.00;97717.88;4834443;29;20038;-83
2023/01/11 06:33:20;;;;;;;15.60;3.58;;;;;;;8.01;100.00;97724.94;4835080;29;20046;-83
2023/01/11 06:35:45;;;;;;;18.23;3.13;;;;;;;7.86;100.00;97712.97;4831656;29;20477;-84
2023/01/11 06:38:14;;;;;;;21.60;3.20;;;;;;;8.06;100.00;97712.06;4834237;29;20038;-82
2023/01/11 06:40:41;;;;;;;21.05;3.40;;;;;;;8.04;100.00;97719.28;4831011;29;20517;-83
2023/01/11 06:43:07;;;;;;;22.63;3.25;;;;;;;7.63;100.00;97708.25;4829767;29;20036;-83
2023/01/11 06:45:33;;;;;;;16.27;3.05;;;;;;;7.96;100.00;97722.97;4837354;29;20071;-82
2023/01/11 06:47:59;;;;;;;12.15;3.55;;;;;;;7.99;100.00;97696.41;4832630;29;20041;-83
2023/01/11 06:50:25;;;;;;;17.90;3.30;;;;;;;8.03;100.00;97722.91;4833489;29;20041;-83
2023/01/11 06:52:57;;;;;;;15.60;3.72;;;;;;;7.92;100.00;97713.94;4834668;29;20045;-85
2023/01/11 06:55:24;;;;;;;14.68;3.00;;;;;;;7.74;100.00;97730.31;4835296;29;20080;-86
2023/01/11 06:57:49;;;;;;;13.27;3.10;;;;;;;7.86;100.00;97718.19;4829624;29;20133;-84
2023/01/11 07:00:16;;;;;;;17.67;3.08;;;;;;;8.07;100.00;97728.53;4833421;29;20529;-85
2023/01/11 07:02:43;;;;;;;18.40;3.28;;;;;;;8.28;100.00;97730.00;4832563;29;20061;-84
2023/01/11 07:05:09;;;;;;;11.38;3.03;;;;;;;8.08;100.00;97723.09;4834836;29;20064;-84
2023/01/11 07:07:35;;;;;;;18.85;3.30;;;;;;;8.22;100.00;97715.16;4828725;29;20057;-84
2023/01/11 07:10:01;;;;;;;16.92;3.38;;;;;;;8.13;100.00;97720.66;4834817;29;20045;-83
2023/01/11 07:12:28;;;;;;;14.02;3.80;;;;;;;7.76;100.00;97701.34;4834174;29;20091;-84
2023/01/11 07:14:54;;;;;;;12.48;3.08;;;;;;;8.02;100.00;97716.09;4841971;29;20378;-85
2023/01/11 07:17:19;;;;;;;17.92;3.10;;;;;;;8.09;100.00;97722.09;4836207;29;20107;-85
2023/01/11 07:19:45;;;;;;;13.43;2.63;;;;;;;7.67;100.00;97709.44;4831099;29;20060;-83
2023/01/11 07:22:10;;;;;;;20.55;3.30;;;;;;;7.79;100.00;97714.81;4831184;29;20038;-85
2023/01/11 07:24:36;;;;;;;17.60;3.30;;;;;;;7.69;100.00;97722.31;4830852;29;20397;-84
2023/01/11 07:27:02;;;;;;;13.73;3.20;;;;;;;7.78;100.00;97728.88;4834124;29;20045;-84
2023/01/11 07:29:28;;;;;;;22.90;3.78;;;;;;;7.53;100.00;97726.97;4833371;29;20484;-84
2023/01/11 07:31:53;;;;;;;22.42;4.60;;;;;;;7.63;100.00;97717.91;4828657;29;20073;-83
2023/01/11 07:34:19;;;;;;;21.90;5.32;;;;;;;7.69;100.00;97737.97;4832488;29;20509;-83
2023/01/11 07:36:45;;;;;;;20.77;3.72;;;;;;;7.63;100.00;97738.78;4832338;29;20066;-83
2023/01/11 07:39:13;;;;;;;16.83;3.25;;;;;;;7.34;100.00;97699.16;4833866;29;20117;-83
2023/01/11 07:44:23;;;;;;;19.27;3.63;;;;;;;7.52;100.00;97754.09;4832756;29;20042;-83
2023/01/11 07:46:49;;;;;;;12.80;3.42;;;;;;;7.47;100.00;97735.66;4833927;29;20091;-88
2023/01/11 07:49:14;;;;;;;21.40;3.65;;;;;;;7.61;100.00;97748.66;4848392;29;20375;-84
2023/01/11 07:51:41;;;;;;;24.85;3.20;;;;;;;7.73;100.00;97744.38;4844028;29;20034;-84
2023/01/11 07:54:10;;;;;;;23.00;4.72;;;;;;;7.37;100.00;97743.09;4830038;29;20338;-81
2023/01/11 07:56:36;;;;;;;14.82;3.53;;;;;;;7.57;100.00;97745.66;4835496;29;20048;-81
2023/01/11 07:59:02;;;;;;;15.02;4.03;;;;;;;7.52;100.00;97743.66;4839890;29;20518;-83
2023/01/11 08:01:28;;;;;;;15.90;3.42;;;;;;;7.53;100.00;97760.13;4834411;29;20066;-83
2023/01/11 08:03:53;;;;;;;18.27;3.20;;;;;;;7.24;100.00;97751.78;4831835;29;20434;-81
2023/01/11 08:06:19;;;;;;;20.20;4.18;;;;;;;7.75;100.00;97754.59;4830100;29;20082;-83
2023/01/11 08:08:45;;;;;;;17.50;3.50;;;;;;;7.38;100.00;97776.84;4838406;29;20397;-85
2023/01/11 08:16:39;;;;;;;17.10;3.47;;;;;;;7.65;100.00;97762.88;4834341;29;20030;-82
2023/01/11 08:19:06;;;;;;;22.67;4.18;;;;;;;7.21;100.00;97773.06;4833845;29;20091;-82
2023/01/11 08:21:31;;;;;;;24.98;3.95;;;;;;;7.20;100.00;97776.69;4832261;29;20034;-86
2023/01/11 08:23:58;;;;;;;22.67;3.65;;;;;;;7.58;100.00;97766.31;4834182;29;20034;-85
2023/01/11 08:26:25;;;;;;;16.55;3.92;;;;;;;7.46;100.00;97775.00;4833724;29;20030;-84
2023/01/11 08:28:52;;;;;;;21.10;4.00;;;;;;;7.67;100.00;97776.56;4834920;29;20056;-85
2023/01/11 08:31:18;;;;;;;19.27;3.85;;;;;;;7.37;100.00;97797.94;4829210;29;20115;-84
2023/01/11 08:33:44;;;;;;;19.30;3.90;;;;;;;7.75;100.00;97788.56;4832867;29;20034;-86
2023/01/11 08:36:11;;;;;;;22.17;3.70;;;;;;;7.48;100.00;97779.03;4827161;29;20498;-86
2023/01/11 08:38:38;;;;;;;21.02;3.72;;;;;;;7.46;100.00;97786.25;4830512;29;20033;-88
2023/01/11 08:41:11;;;;;;;23.42;3.97;;;;;;;7.37;100.00;97792.69;4830016;29;20031;-86
2023/01/11 08:43:40;;;;;;;22.02;4.93;;;;;;;7.52;100.00;97795.88;4848429;29;20086;-84
2023/01/11 08:46:07;;;;;;;25.92;4.65;;;;;;;7.58;100.00;97786.44;4834988;29;20037;-85
2023/01/11 08:48:34;;;;;;;25.17;5.60;;;;;;;7.73;100.00;97788.78;4838543;29;20065;-86
2023/01/11 08:50:59;;;;;;;27.42;3.92;;;;;;;7.47;100.00;97777.44;4832245;29;20034;-86
2023/01/11 08:53:25;;;;;;;21.23;3.75;;;;;;;7.46;100.00;97781.03;4839189;29;20481;-86
2023/01/11 08:55:51;;;;;;;26.08;3.90;;;;;;;7.75;100.00;97802.44;4838172;29;20034;-86
2023/01/11 08:58:17;;;;;;;24.13;4.70;;;;;;;7.76;100.00;97811.06;4840738;29;20516;-87
2023/01/11 09:00:44;;;;;;;33.90;5.90;;;;;;;7.75;100.00;97805.06;4824192;29;20581;-86
2023/01/11 09:03:10;;;;;;;26.20;5.47;;;;;;;7.47;100.00;97792.28;4828683;29;20026;-85
2023/01/11 09:05:40;;;;;;;26.75;5.22;;;;;;;7.96;100.00;97797.94;4826312;29;20038;-85
2023/01/11 09:08:07;;;;;;;27.85;5.15;;;;;;;7.68;100.00;97804.28;4834571;29;20409;-86
2023/01/11 09:10:32;;;;;;;31.70;5.28;;;;;;;7.77;100.00;97781.34;4835178;29;20062;-87
2023/01/11 09:12:58;;;;;;;31.10;4.75;;;;;;;7.91;100.00;97769.03;4828218;29;20065;-85
2023/01/11 09:15:24;;;;;;;25.60;5.15;;;;;;;7.70;100.00;97783.97;4832322;29;20108;-83
2023/01/11 09:17:51;;;;;;;29.58;4.60;;;;;;;7.78;100.00;97770.69;4846680;29;20438;-87
2023/01/11 09:20:18;;;;;;;32.08;4.45;;;;;;;7.90;100.00;97775.25;4828256;29;20127;-85
2023/01/11 09:22:48;;;;;;;25.25;3.47;;;;;;;7.95;100.00;97788.50;4832361;29;20030;-85
2023/01/11 09:25:15;;;;;;;19.60;4.20;;;;;;;7.99;100.00;97785.25;4845200;29;20121;-84
2023/01/11 09:27:48;;;;;;;22.02;4.75;;;;;;;8.19;100.00;97776.50;4832472;29;20041;-83
2023/01/11 09:30:17;;;;;;;21.05;4.75;;;;;;;8.25;100.00;97782.69;4825772;29;20037;-84
2023/01/11 09:32:43;;;;;;;25.85;4.93;;;;;;;8.17;100.00;97786.38;4836379;29;20053;-84
2023/01/11 09:35:09;;;;;;;25.98;4.53;;;;;;;8.68;100.00;97781.22;4837865;29;20039;-85
2023/01/11 09:37:38;;;;;;;33.17;4.95;;;;;;;8.64;100.00;97780.84;4831049;29;20040;-86
2023/01/11 09:40:06;;;;;;;26.80;4.13;;;;;;;8.01;100.00;97779.81;4833420;29;20041;-85
2023/01/11 09:42:36;;;;;;;21.10;4.18;;;;;;;8.71;100.00;97786.84;4831498;29;20034;-84
2023/01/11 09:45:13;;;;;;;21.30;4.30;;;;;;;8.56;100.00;97779.31;4829758;29;20142;-84
2023/01/11 09:48:02;;;;;;;25.05;3.72;;;;;;;8.17;100.00;97796.03;4842418;29;20061;-85
2023/01/11 09:50:32;;;;;;;27.80;4.53;;;;;;;8.38;100.00;97793.06;4831315;29;20032;-86
2023/01/11 09:53:07;;;;;;;22.92;5.60;;;;;;;8.51;100.00;97783.59;4835443;29;20034;-84
2023/01/11 09:55:42;;;;;;;31.40;7.82;;;;;;;8.59;100.00;97788.53;4826609;29;20489;-86
2023/01/11 09:58:08;;;;;;;22.23;5.43;;;;;;;8.47;100.00;97792.84;4829116;29;20038;-86
2023/01/11 10:01:11;;;;;;;33.95;6.15;;;;;;;8.44;100.00;97801.91;4829934;29;20042;-86
2023/01/11 10:04:36;;;;;;;20.45;4.68;;;;;;;8.51;100.00;97801.88;4843620;29;20402;-83
2023/01/11 10:07:10;;;;;;;31.35;4.82;;;;;;;8.55;100.00;97803.88;4812687;29;20099;-86
2023/01/11 10:09:51;;;;;;;28.17;5.43;;;;;;;8.88;100.00;97802.03;4825215;29;20053;-86
2023/01/11 10:12:34;;;;;;;23.90;4.95;;;;;;;8.67;100.00;97790.91;4830018;29;20038;-85
2023/01/11 10:15:20;;;;;;;23.95;5.18;;;;;;;8.74;100.00;97800.53;4846269;29;20116;-85
2023/01/11 10:18:06;;;;;;;25.08;5.38;;;;;;;8.69;100.00;97799.34;4842163;29;20049;-86
2023/01/11 10:20:42;;;;;;;27.13;6.18;;;;;;;8.74;100.00;97798.69;4842612;29;20042;-84
2023/01/11 10:23:34;;;;;;;20.80;4.97;;;;;;;9.19;100.00;97810.00;4844801;29;20034;-83
2023/01/11 10:26:08;;;;;;;22.60;5.45;;;;;;;9.12;100.00;97795.16;4846089;29;20045;-84
2023/01/11 10:32:09;;;;;;;26.10;4.30;;;;;;;9.05;100.00;97806.72;4808634;29;20038;-83
2023/01/11 10:43:15;;;;;;;31.93;4.97;;;;;;;9.21;100.00;97827.09;4826101;29;20034;-84
2023/01/11 10:45:58;;;;;;;29.63;5.57;;;;;;;9.12;100.00;97833.63;4829068;29;20034;-84
2023/01/11 10:48:37;;;;;;;30.50;4.93;;;;;;;9.10;100.00;97836.44;4830766;29;20049;-85
2023/01/11 10:51:06;;;;;;;33.13;5.75;;;;;;;8.82;100.00;97839.50;4850946;29;20046;-85
2023/01/11 10:53:41;;;;;;;29.35;5.80;;;;;;;8.96;100.00;97825.28;4825455;29;20034;-86
2023/01/11 10:56:34;;;;;;;26.35;5.18;;;;;;;8.80;100.00;97795.25;4845279;29;20034;-84
2023/01/11 10:59:41;;;;;;;34.38;4.97;;;;;;;8.96;100.00;97819.28;4830173;29;20030;-85
2023/01/11 11:02:23;;;;;;;18.95;5.03;;;;;;;8.47;100.00;97795.47;4827724;29;20087;-84
2023/01/11 11:05:07;;;;;;;23.40;5.43;;;;;;;8.50;100.00;97805.53;4830198;29;20044;-80
2023/01/11 11:07:53;;;;;;;30.73;5.07;;;;;;;8.67;100.00;97775.22;4826828;29;20049;-82
2023/01/11 11:10:44;;;;;;;19.38;5.05;;;;;;;8.98;100.00;97776.16;4827483;29;20034;-81
2023/01/11 11:13:15;;;;;;;23.95;4.55;;;;;;;8.83;100.00;97773.06;4833873;29;20030;-80
2023/01/11 11:16:16;;;;;;;30.52;5.32;;;;;;;8.55;100.00;97751.56;4832270;29;20040;-81
2023/01/11 11:18:42;;;;;;;21.70;4.40;;;;;;;9.10;100.00;97741.44;4829972;29;20131;-80
2023/01/11 11:21:29;;;;;;;24.23;3.97;;;;;;;8.81;100.00;97746.31;4833735;29;20037;-82
2023/01/11 11:24:02;;;;;;;25.13;4.10;;;;;;;9.17;100.00;97757.06;4841509;29;20396;-83
2023/01/11 11:26:37;;;;;;;20.23;4.03;;;;;;;8.85;100.00;97747.50;4835614;29;20106;-86
2023/01/11 11:29:08;;;;;;;21.42;4.28;;;;;;;8.77;100.00;97750.38;4831799;29;20401;-82
2023/01/11 11:31:40;;;;;;;24.88;4.00;;;;;;;8.88;100.00;97713.06;4825199;29;20038;-83
2023/01/11 11:34:18;;;;;;;20.42;4.40;;;;;;;8.69;100.00;97722.66;4844383;29;20044;-83
2023/01/11 11:36:45;;;;;;;19.52;4.18;;;;;;;8.66;100.00;97737.00;4831545;29;20048;-84
2023/01/11 11:39:30;;;;;;;17.33;5.10;;;;;;;8.90;100.00;97725.91;4845998;29;20104;-83
2023/01/11 11:42:13;;;;;;;27.45;5.20;;;;;;;9.04;100.00;97710.88;4833666;29;20489;-83
2023/01/11 11:44:39;;;;;;;20.90;4.68;;;;;;;9.24;100.00;97721.94;4833386;29;20038;-84
2023/01/11 11:47:14;;;;;;;27.77;5.03;;;;;;;9.04;100.00;97718.72;4831102;29;20053;-84
2023/01/11 11:49:41;;;;;;;23.20;4.68;;;;;;;8.89;100.00;97717.28;4830004;29;20065;-83
2023/01/11 11:52:16;;;;;;;32.38;4.45;;;;;;;8.85;100.00;97703.03;4853235;29;20050;-85
2023/01/11 11:54:50;;;;;;;33.47;5.30;;;;;;;9.20;100.00;97726.00;4839033;29;20106;-84
2023/01/11 11:57:22;;;;;;;28.13;5.20;;;;;;;9.08;100.00;97733.78;4844453;29;20566;-85
2023/01/11 11:59:53;;;;;;;26.52;4.55;;;;;;;9.36;100.00;97731.69;4830824;29;20042;-86
2023/01/11 12:02:29;;;;;;;25.02;4.97;;;;;;;9.22;100.00;97728.41;4828374;29;20151;-85
2023/01/11 12:04:57;;;;;;;29.98;5.18;;;;;;;9.60;100.00;97718.72;4830224;29;20125;-87
2023/01/11 12:07:31;;;;;;;20.88;3.97;;;;;;;9.46;100.00;97728.56;4831637;29;20050;-83
2023/01/11 12:10:04;;;;;;;16.70;4.10;;;;;;;9.77;100.00;97726.78;4833495;29;20053;-82
2023/01/11 12:12:33;;;;;;;;;;;;;;;10.02;100.00;97724.00;4836621;29;20027;-84
2023/01/11 12:15:07;;;;;;;20.38;3.72;;;;;;;9.75;100.00;97718.34;4827650;29;19916;-83
2023/01/11 12:17:33;;;;;;;20.85;3.80;;;;;;;9.74;100.00;97708.88;4830420;29;20588;-83
2023/01/11 12:19:58;;;;;;;27.05;4.43;;;;;;;10.10;100.00;97700.09;4829196;29;20169;-84
2023/01/11 12:22:27;;;;;;;16.85;4.05;;;;;;;10.14;100.00;97698.63;4837578;29;20026;-83
2023/01/11 12:25:24;;;;;;;17.25;4.07;;;;;;;10.38;100.00;97706.53;4832574;29;20063;-83